Time;durP1;ratioP1;P1;durP2;ratioP2;P2;SDS_P1;SDS_P2;PMS_P1;PMS_P2;Temp;Humidity;BMP_temperature;BMP_pressure;BME280_temperature;BME280_humidity;BME280_pressure;Samples;Min_cycle;Max_cycle;Signal;HPM_P1;HPM_P2
2023/10/24 00:02:09;;;;;;;7.13;4.20;;;;;;;11.73;100.00;99548.69;5024871;28;20227;-67
2023/10/24 00:04:36;;;;;;;8.70;4.33;;;;;;;11.69;100.00;99521.28;5016132;28;20654;-68
2023/10/24 00:07:02;;;;;;;8.77;4.70;;;;;;;11.92;100.00;99519.41;5026374;28;20200;-68
2023/10/24 00:09:29;;;;;;;9.97;4.97;;;;;;;11.85;100.00;99504.41;5041856;28;20223;-69
2023/10/24 00:11:55;;;;;;;8.97;4.37;;;;;;;11.85;100.00;99493.81;5027339;28;20288;-67
2023/10/24 00:14:21;;;;;;;8.03;4.77;;;;;;;11.81;100.00;99499.13;5025987;28;20200;-68
2023/10/24 00:16:48;;;;;;;7.90;4.07;;;;;;;11.80;100.00;99503.56;5028378;28;20195;-67
2023/10/24 00:19:14;;;;;;;7.10;4.70;;;;;;;11.73;100.00;99514.19;5027194;28;20210;-67
2023/10/24 00:21:41;;;;;;;7.33;4.40;;;;;;;11.75;100.00;99509.75;5031871;28;20222;-66
2023/10/24 00:24:08;;;;;;;11.07;4.77;;;;;;;11.72;100.00;99523.03;5026305;28;20203;-68
2023/10/24 00:26:34;;;;;;;6.93;4.30;;;;;;;11.71;100.00;99523.94;5026746;28;20200;-69
2023/10/24 00:29:01;;;;;;;8.53;4.37;;;;;;;11.70;100.00;99531.00;5029419;28;20671;-67
2023/10/24 00:31:27;;;;;;;6.60;4.33;;;;;;;11.71;100.00;99532.78;5025732;28;20263;-68
2023/10/24 00:33:54;;;;;;;9.20;4.57;;;;;;;11.75;100.00;99536.28;5024876;28;20212;-68
2023/10/24 00:36:20;;;;;;;6.97;4.43;;;;;;;11.77;100.00;99531.84;5025555;28;20219;-67
2023/10/24 00:38:46;;;;;;;10.10;4.80;;;;;;;11.78;100.00;99528.34;5027270;28;20294;-68
2023/10/24 00:41:13;;;;;;;8.93;4.80;;;;;;;11.80;100.00;99529.22;5024047;28;20200;-69
2023/10/24 00:43:39;;;;;;;9.17;4.37;;;;;;;11.89;100.00;99522.06;5027653;28;20673;-67
2023/10/24 00:46:07;;;;;;;6.37;4.20;;;;;;;11.82;100.00;99527.44;5027633;28;20641;-67
2023/10/24 00:48:34;;;;;;;9.90;4.57;;;;;;;11.79;100.00;99528.34;5027463;28;20199;-67
2023/10/24 00:51:01;;;;;;;6.40;4.17;;;;;;;11.76;100.00;99530.97;5026696;28;20222;-67
2023/10/24 00:53:28;;;;;;;6.30;4.40;;;;;;;11.78;100.00;99537.19;5027753;28;20214;-68
2023/10/24 00:55:54;;;;;;;6.17;4.30;;;;;;;11.78;100.00;99555.75;5029864;28;20200;-67
2023/10/24 00:58:21;;;;;;;7.27;5.10;;;;;;;11.85;100.00;99559.25;5031816;28;20214;-68
2023/10/24 01:00:48;;;;;;;8.07;5.30;;;;;;;11.85;100.00;99545.97;5024239;28;20208;-68
2023/10/24 01:03:14;;;;;;;8.87;5.57;;;;;;;11.86;100.00;99542.44;5032274;28;20229;-69
2023/10/24 01:05:41;;;;;;;7.53;5.33;;;;;;;11.84;100.00;99513.25;5020676;28;20823;-66
2023/10/24 01:08:08;;;;;;;8.57;5.33;;;;;;;11.87;100.00;99522.97;5027016;28;20286;-67
2023/10/24 01:10:37;;;;;;;7.70;5.03;;;;;;;11.88;100.00;99535.34;5024642;28;20242;-68
2023/10/24 01:13:04;;;;;;;10.33;5.53;;;;;;;11.90;100.00;99542.41;5021970;28;20231;-67
2023/10/24 01:15:30;;;;;;;8.00;5.47;;;;;;;11.91;100.00;99541.53;5027020;28;20207;-69
2023/10/24 01:17:58;;;;;;;9.63;5.47;;;;;;;11.95;100.00;99523.81;5023139;28;20212;-69
2023/10/24 01:20:25;;;;;;;9.73;5.83;;;;;;;11.96;100.00;99524.69;5026498;28;20199;-67
2023/10/24 01:22:51;;;;;;;7.53;5.50;;;;;;;11.93;100.00;99520.28;5022178;28;20405;-67
2023/10/24 01:25:18;;;;;;;8.93;5.97;;;;;;;11.95;100.00;99517.63;5029455;28;20199;-67
2023/10/24 01:27:44;;;;;;;10.23;5.73;;;;;;;12.01;100.00;99506.97;5031278;28;20297;-68
2023/10/24 01:30:12;;;;;;;8.47;5.83;;;;;;;12.12;100.00;99502.47;5023274;28;20231;-68
2023/10/24 01:32:39;;;;;;;12.20;5.70;;;;;;;12.20;100.00;99479.41;5024865;28;20299;-67
2023/10/24 01:35:07;;;;;;;8.17;5.50;;;;;;;12.00;100.00;99473.34;5031947;28;20207;-68
2023/10/24 01:37:33;;;;;;;7.17;4.43;;;;;;;11.73;100.00;99482.38;5024919;28;20206;-68
2023/10/24 01:40:00;;;;;;;9.07;5.07;;;;;;;11.55;100.00;99491.28;5027721;28;20213;-67
2023/10/24 01:42:26;;;;;;;9.17;5.20;;;;;;;11.54;100.00;99508.09;5027188;28;20235;-68
2023/10/24 01:44:52;;;;;;;8.13;5.40;;;;;;;11.55;100.00;99502.75;5023031;28;20203;-69
2023/10/24 01:47:19;;;;;;;9.63;5.37;;;;;;;11.58;100.00;99492.16;5025980;28;20792;-68
2023/10/24 01:49:45;;;;;;;11.73;5.77;;;;;;;11.63;100.00;99499.22;5035879;28;20211;-68
2023/10/24 01:52:12;;;;;;;6.50;4.60;;;;;;;11.64;100.00;99509.81;5029218;28;20215;-67
2023/10/24 01:54:38;;;;;;;8.03;5.53;;;;;;;11.67;100.00;99504.50;5019996;28;20302;-68
2023/10/24 01:57:05;;;;;;;9.87;5.57;;;;;;;11.73;100.00;99501.81;5029430;28;20667;-68
2023/10/24 01:59:31;;;;;;;8.63;5.27;;;;;;;11.75;100.00;99504.44;5034648;28;20584;-68
2023/10/24 02:01:58;;;;;;;7.07;5.17;;;;;;;11.78;100.00;99494.72;5030850;28;20313;-69
2023/10/24 02:04:24;;;;;;;12.40;6.10;;;;;;;11.81;100.00;99492.06;5023691;28;20683;-66
2023/10/24 02:06:51;;;;;;;10.60;6.10;;;;;;;11.81;100.00;99499.13;5025637;28;20206;-68
2023/10/24 02:09:17;;;;;;;8.63;5.77;;;;;;;11.91;100.00;99500.84;5031185;28;20411;-69
2023/10/24 02:11:43;;;;;;;9.20;5.23;;;;;;;11.97;100.00;99499.91;5033572;28;20316;-69
2023/10/24 02:14:10;;;;;;;9.87;6.00;;;;;;;11.94;100.00;99487.56;5028586;28;20200;-68
2023/10/24 02:16:36;;;;;;;7.23;5.13;;;;;;;11.87;100.00;99493.78;5029429;28;20216;-69
2023/10/24 02:19:03;;;;;;;8.93;5.37;;;;;;;11.85;100.00;99488.50;5028819;28;20207;-70
2023/10/24 02:21:29;;;;;;;9.27;5.37;;;;;;;11.82;100.00;99499.13;5026658;28;20219;-68
2023/10/24 02:23:56;;;;;;;9.77;5.87;;;;;;;11.83;100.00;99508.84;5035747;28;20199;-69
2023/10/24 02:26:22;;;;;;;10.60;5.73;;;;;;;11.88;100.00;99487.59;5028395;28;20531;-69
2023/10/24 02:28:49;;;;;;;10.40;5.30;;;;;;;11.86;100.00;99476.13;5026194;28;20211;-68
2023/10/24 02:31:15;;;;;;;9.80;5.30;;;;;;;11.89;100.00;99474.31;5028502;28;20280;-68
2023/10/24 02:33:42;;;;;;;9.93;5.80;;;;;;;11.92;100.00;99482.25;5034738;28;20210;-67
2023/10/24 02:36:10;;;;;;;10.33;6.40;;;;;;;11.90;100.00;99480.50;5033830;28;20290;-68
2023/10/24 02:38:37;;;;;;;9.27;5.63;;;;;;;11.85;100.00;99469.03;5028355;28;20230;-68
2023/10/24 02:41:04;;;;;;;12.87;5.93;;;;;;;11.80;100.00;99477.03;5026726;28;20231;-68
2023/10/24 02:43:30;;;;;;;8.30;4.90;;;;;;;11.79;100.00;99480.59;5030522;28;20214;-68
2023/10/24 02:46:01;;;;;;;10.83;6.13;;;;;;;11.86;100.00;99466.38;5033210;28;20213;-68
2023/10/24 02:48:27;;;;;;;11.03;5.60;;;;;;;11.78;100.00;99470.88;5034794;28;20235;-69
2023/10/24 02:50:54;;;;;;;8.37;4.90;;;;;;;11.72;100.00;99481.47;5030583;28;20215;-66
2023/10/24 02:53:22;;;;;;;10.90;5.57;;;;;;;11.67;100.00;99495.66;5031864;28;20231;-68
2023/10/24 02:55:49;;;;;;;8.17;5.00;;;;;;;11.68;100.00;99508.03;5031364;28;20207;-68
2023/10/24 02:58:16;;;;;;;10.07;5.27;;;;;;;11.69;100.00;99493.88;5029483;28;20206;-68
2023/10/24 03:00:44;;;;;;;8.07;4.90;;;;;;;11.71;100.00;99495.63;5029788;28;20203;-67
2023/10/24 03:03:13;;;;;;;9.83;5.00;;;;;;;11.73;100.00;99487.66;5031746;28;20269;-68
2023/10/24 03:05:40;;;;;;;12.97;6.23;;;;;;;11.72;100.00;99500.06;5028698;28;20195;-67
2023/10/24 03:08:06;;;;;;;7.77;5.43;;;;;;;11.80;100.00;99498.25;5028909;28;20285;-67
2023/10/24 03:10:40;;;;;;;8.50;5.00;;;;;;;11.97;100.00;99494.59;5032947;28;20250;-68
2023/10/24 03:13:07;;;;;;;10.33;5.67;;;;;;;11.99;100.00;99495.47;5028921;28;20223;-67
2023/10/24 03:15:35;;;;;;;9.47;5.77;;;;;;;11.96;100.00;99507.00;5034220;28;20206;-66
2023/10/24 03:18:02;;;;;;;10.93;5.10;;;;;;;11.86;100.00;99503.53;5027453;28;20200;-67
2023/10/24 03:20:28;;;;;;;8.63;5.67;;;;;;;11.82;100.00;99511.50;5033525;28;20269;-68
2023/10/24 03:22:55;;;;;;;11.57;5.37;;;;;;;11.71;100.00;99503.59;5030820;28;20717;-68
2023/10/24 03:25:23;;;;;;;8.70;5.50;;;;;;;11.73;100.00;99498.28;5027192;28;20572;-67
2023/10/24 03:27:54;;;;;;;10.40;5.90;;;;;;;11.79;100.00;99492.97;5025162;28;20210;-68
2023/10/24 03:30:21;;;;;;;12.13;6.13;;;;;;;11.77;100.00;99492.94;5027698;28;20638;-67
2023/10/24 03:32:47;;;;;;;9.77;5.50;;;;;;;11.71;100.00;99506.25;5032641;28;20222;-67
2023/10/24 03:35:14;;;;;;;9.00;5.83;;;;;;;11.70;100.00;99504.47;5028961;28;20407;-68
2023/10/24 03:37:41;;;;;;;10.20;5.17;;;;;;;11.67;100.00;99509.81;5028078;28;20262;-67
2023/10/24 03:40:08;;;;;;;9.80;5.47;;;;;;;11.69;100.00;99507.16;5027674;28;20273;-67
2023/10/24 03:42:35;;;;;;;8.90;5.40;;;;;;;11.67;100.00;99507.16;5032856;28;20243;-68
2023/10/24 03:45:01;;;;;;;8.07;5.43;;;;;;;11.67;100.00;99517.75;5028333;28;20295;-68
2023/10/24 03:47:28;;;;;;;7.80;5.00;;;;;;;11.67;100.00;99519.53;5029434;28;20199;-68
2023/10/24 03:49:54;;;;;;;10.70;5.53;;;;;;;11.64;100.00;99516.91;5026711;28;20203;-69
2023/10/24 03:52:21;;;;;;;11.50;5.97;;;;;;;11.60;100.00;99514.22;5030470;28;20223;-66
2023/10/24 03:54:47;;;;;;;9.60;6.13;;;;;;;11.56;100.00;99508.94;5033501;28;20239;-68
2023/10/24 03:57:14;;;;;;;11.43;6.60;;;;;;;11.58;100.00;99499.22;5033371;28;20226;-68
2023/10/24 03:59:40;;;;;;;9.77;6.10;;;;;;;11.53;100.00;99491.28;5027179;28;20647;-65
2023/10/24 04:02:06;;;;;;;7.93;5.33;;;;;;;11.51;100.00;99492.19;5023934;28;20218;-68
2023/10/24 04:04:33;;;;;;;9.53;5.73;;;;;;;11.45;100.00;99494.88;5029615;28;20263;-68
2023/10/24 04:06:59;;;;;;;10.30;6.30;;;;;;;11.41;100.00;99503.72;5025523;28;20575;-68
2023/10/24 04:09:26;;;;;;;10.30;6.37;;;;;;;11.39;100.00;99501.09;5028720;28;20306;-70
2023/10/24 04:12:05;;;;;;;10.63;6.10;;;;;;;11.41;100.00;99512.56;5043799;22;20230;-70
2023/10/24 04:14:32;;;;;;;14.00;6.80;;;;;;;11.44;100.00;99511.66;5048013;28;20694;-73
2023/10/24 04:16:58;;;;;;;9.13;5.80;;;;;;;11.35;100.00;99515.25;5046393;28;20222;-70
2023/10/24 04:19:25;;;;;;;9.10;6.17;;;;;;;11.29;100.00;99507.31;5045099;28;20199;-71
2023/10/24 04:21:51;;;;;;;10.73;6.17;;;;;;;11.23;100.00;99513.53;5046304;28;20578;-71
2023/10/24 04:24:17;;;;;;;10.27;5.57;;;;;;;11.19;100.00;99514.41;5045724;28;20205;-72
2023/10/24 04:26:44;;;;;;;10.30;5.97;;;;;;;11.38;100.00;99520.53;5042948;28;20206;-71
2023/10/24 04:29:11;;;;;;;9.63;6.10;;;;;;;11.36;100.00;99518.78;5045728;28;20202;-71
2023/10/24 04:31:37;;;;;;;10.47;6.50;;;;;;;11.43;100.00;99523.16;5046134;28;20227;-71
2023/10/24 04:34:07;;;;;;;12.43;5.90;;;;;;;11.40;100.00;99509.91;5044921;28;20202;-72
2023/10/24 04:36:33;;;;;;;9.87;5.97;;;;;;;11.31;100.00;99510.84;5046419;28;20745;-72
2023/10/24 04:39:00;;;;;;;13.07;6.90;;;;;;;11.36;100.00;99514.34;5046585;28;20303;-73
2023/10/24 04:41:26;;;;;;;11.53;6.83;;;;;;;11.28;100.00;99508.22;5045414;28;20209;-72
2023/10/24 04:43:53;;;;;;;13.07;7.57;;;;;;;11.21;100.00;99511.78;5047348;28;20211;-73
2023/10/24 04:46:19;;;;;;;11.47;6.97;;;;;;;11.13;100.00;99495.88;5044605;28;20256;-73
2023/10/24 04:48:46;;;;;;;9.97;6.93;;;;;;;11.10;100.00;99505.59;5046289;28;20316;-73
2023/10/24 04:51:12;;;;;;;11.10;6.30;;;;;;;11.05;100.00;99496.78;5046266;28;20230;-73
2023/10/24 04:53:39;;;;;;;13.03;6.23;;;;;;;11.01;100.00;99493.28;5047913;28;20717;-71
2023/10/24 04:56:05;;;;;;;10.93;7.20;;;;;;;10.97;100.00;99489.75;5047293;28;23653;-72
2023/10/24 04:58:32;;;;;;;11.97;6.43;;;;;;;11.05;100.00;99488.84;5048560;28;20202;-72
2023/10/24 05:00:59;;;;;;;11.87;7.07;;;;;;;11.04;100.00;99482.66;5046882;28;20686;-73
2023/10/24 05:03:26;;;;;;;13.67;6.73;;;;;;;11.05;100.00;99488.84;5060670;28;20275;-71
2023/10/24 05:05:53;;;;;;;12.07;7.03;;;;;;;11.13;100.00;99485.28;5046855;28;20216;-70
2023/10/24 05:08:19;;;;;;;11.40;7.20;;;;;;;11.20;100.00;99470.22;5048644;28;20202;-71
2023/10/24 05:10:47;;;;;;;10.57;7.60;;;;;;;11.22;100.00;99474.66;5042955;28;20256;-75
2023/10/24 05:13:14;;;;;;;12.53;7.27;;;;;;;11.16;100.00;99482.59;5040537;28;20240;-75
2023/10/24 05:15:40;;;;;;;10.20;6.90;;;;;;;11.08;100.00;99472.94;5037360;28;20231;-78
2023/10/24 05:18:11;;;;;;;13.07;7.80;;;;;;;11.06;100.00;99470.28;5045377;28;20300;-76
2023/10/24 05:20:38;;;;;;;16.93;7.17;;;;;;;11.03;100.00;99464.13;5043417;28;20850;-79
2023/10/24 05:23:06;;;;;;;14.50;7.90;;;;;;;10.98;100.00;99448.25;5048190;28;20221;-77
2023/10/24 05:25:33;;;;;;;16.80;7.83;;;;;;;10.98;100.00;99438.53;5044717;28;20205;-78
2023/10/24 05:27:59;;;;;;;15.70;7.97;;;;;;;11.00;100.00;99433.22;5048624;28;20200;-77
2023/10/24 05:30:25;;;;;;;15.90;8.30;;;;;;;10.97;100.00;99420.00;5049394;28;20696;-78
2023/10/24 05:32:52;;;;;;;15.07;8.20;;;;;;;11.02;100.00;99420.84;5048199;28;20220;-76
2023/10/24 05:35:18;;;;;;;20.63;8.57;;;;;;;11.01;100.00;99413.78;5044452;28;20206;-79
2023/10/24 05:37:45;;;;;;;14.97;8.03;;;;;;;11.04;100.00;99408.47;5049754;28;20239;-79
2023/10/24 05:40:11;;;;;;;14.30;8.63;;;;;;;11.01;100.00;99405.84;5048029;28;20292;-79
2023/10/24 05:42:38;;;;;;;14.03;7.77;;;;;;;10.99;100.00;99391.72;5048386;28;20587;-77
2023/10/24 05:45:05;;;;;;;15.13;8.70;;;;;;;11.04;100.00;99399.66;5046001;28;20293;-77
2023/10/24 05:47:31;;;;;;;15.30;8.20;;;;;;;11.06;100.00;99396.09;5046493;28;20237;-78
2023/10/24 05:49:57;;;;;;;12.87;7.93;;;;;;;11.03;100.00;99395.25;5039177;28;20270;-79
2023/10/24 05:52:24;;;;;;;13.27;8.03;;;;;;;11.00;100.00;99412.03;5046030;28;20221;-78
2023/10/24 05:54:52;;;;;;;17.50;8.13;;;;;;;10.94;100.00;99423.53;5043407;28;20202;-77
2023/10/24 05:57:18;;;;;;;17.07;7.93;;;;;;;10.91;100.00;99433.25;5042625;28;20237;-77
2023/10/24 05:59:44;;;;;;;13.87;7.80;;;;;;;10.87;100.00;99447.41;5047775;28;20682;-77
2023/10/24 06:02:11;;;;;;;12.97;7.00;;;;;;;10.84;100.00;99456.25;5047334;28;20340;-75
2023/10/24 06:04:37;;;;;;;12.53;7.23;;;;;;;10.81;100.00;99463.31;5047347;28;20264;-79
2023/10/24 06:07:07;;;;;;;13.97;7.53;;;;;;;10.89;100.00;99458.88;5039752;28;20206;-78
2023/10/24 06:09:33;;;;;;;12.80;7.63;;;;;;;10.92;100.00;99453.56;5043702;28;20234;-76
2023/10/24 06:12:00;;;;;;;11.90;7.40;;;;;;;10.87;100.00;99450.94;5044651;28;20303;-74
2023/10/24 06:14:26;;;;;;;15.37;7.80;;;;;;;10.88;100.00;99457.13;5043235;28;20305;-75
2023/10/24 06:16:52;;;;;;;18.13;8.77;;;;;;;10.94;100.00;99452.69;5047261;28;20657;-74
2023/10/24 06:19:19;;;;;;;14.53;8.10;;;;;;;10.99;100.00;99452.66;5048935;28;20239;-77
2023/10/24 06:21:45;;;;;;;16.10;8.23;;;;;;;10.96;100.00;99450.91;5043485;28;20195;-78
2023/10/24 06:24:12;;;;;;;13.87;7.77;;;;;;;10.94;100.00;99457.09;5048943;28;20202;-76
2023/10/24 06:26:38;;;;;;;12.50;7.17;;;;;;;10.90;100.00;99452.69;5047171;28;20205;-76
2023/10/24 06:29:04;;;;;;;11.20;7.13;;;;;;;10.84;100.00;99456.25;5047693;28;20306;-76
2023/10/24 06:31:31;;;;;;;15.20;8.13;;;;;;;10.88;100.00;99447.41;5042916;28;20772;-76
2023/10/24 06:33:59;;;;;;;15.67;8.30;;;;;;;10.89;100.00;99445.63;5048344;28;20673;-75
2023/10/24 06:36:26;;;;;;;15.63;8.27;;;;;;;10.93;100.00;99450.03;5049053;28;20202;-77
2023/10/24 06:38:52;;;;;;;16.70;8.60;;;;;;;10.95;100.00;99458.84;5054865;28;20209;-75
2023/10/24 06:41:19;;;;;;;16.73;8.00;;;;;;;10.97;100.00;99465.03;5051329;28;20194;-77
2023/10/24 06:43:46;;;;;;;13.70;7.63;;;;;;;10.98;100.00;99465.03;5047429;28;20226;-76
2023/10/24 06:46:13;;;;;;;17.07;8.53;;;;;;;10.96;100.00;99464.16;5047855;28;20281;-75
2023/10/24 06:48:39;;;;;;;12.30;7.40;;;;;;;10.94;100.00;99454.44;5048515;28;20199;-73
2023/10/24 06:51:06;;;;;;;14.07;7.90;;;;;;;11.03;100.00;99462.34;5042776;28;20226;-74
2023/10/24 06:53:32;;;;;;;17.60;8.63;;;;;;;11.06;100.00;99458.81;5048835;28;20707;-73
2023/10/24 06:56:02;;;;;;;17.90;8.37;;;;;;;11.04;100.00;99465.88;5049015;28;20212;-73
2023/10/24 06:58:29;;;;;;;18.33;8.40;;;;;;;11.11;100.00;99476.44;5048718;28;20226;-75
2023/10/24 07:00:55;;;;;;;14.40;8.23;;;;;;;11.11;100.00;99467.63;5051362;28;20222;-72
2023/10/24 07:03:22;;;;;;;13.23;7.70;;;;;;;11.12;100.00;99472.03;5050575;28;20234;-73
2023/10/24 07:05:52;;;;;;;15.90;7.83;;;;;;;11.19;100.00;99461.41;5052878;28;20220;-72
2023/10/24 07:08:20;;;;;;;15.53;8.40;;;;;;;11.24;100.00;99462.28;5046229;28;20199;-71
2023/10/24 07:10:47;;;;;;;20.30;9.23;;;;;;;11.32;100.00;99466.66;5047244;28;20646;-71
2023/10/24 07:13:13;;;;;;;14.33;8.23;;;;;;;11.40;100.00;99462.22;5042931;28;20703;-73
2023/10/24 07:15:40;;;;;;;14.23;8.30;;;;;;;11.47;100.00;99448.03;5045287;28;20198;-71
2023/10/24 07:18:07;;;;;;;14.77;8.33;;;;;;;11.49;100.00;99457.72;5049641;28;20237;-71
2023/10/24 07:20:38;;;;;;;20.17;9.33;;;;;;;11.46;100.00;99451.56;5037667;28;20214;-71
2023/10/24 07:23:05;;;;;;;20.57;9.37;;;;;;;11.41;100.00;99456.88;5049802;28;20226;-72
2023/10/24 07:25:32;;;;;;;17.33;8.47;;;;;;;11.47;100.00;99467.47;5051018;28;20206;-72
2023/10/24 07:27:59;;;;;;;15.47;8.70;;;;;;;11.51;100.00;99473.63;5051479;28;20205;-72
2023/10/24 07:30:25;;;;;;;15.77;8.13;;;;;;;11.54;100.00;99479.78;5048989;28;20198;-71
2023/10/24 07:32:55;;;;;;;17.27;9.20;;;;;;;11.59;100.00;99477.13;5046959;28;20230;-72
2023/10/24 07:35:22;;;;;;;15.93;8.30;;;;;;;11.59;100.00;99483.28;5050465;28;20228;-72
2023/10/24 07:37:48;;;;;;;16.77;8.50;;;;;;;11.67;100.00;99477.09;5052526;28;20214;-72
2023/10/24 07:40:16;;;;;;;20.50;9.00;;;;;;;11.64;100.00;99466.50;5050207;28;20203;-71
2023/10/24 07:42:42;;;;;;;16.17;9.17;;;;;;;11.63;100.00;99473.59;5051288;28;20676;-72
2023/10/24 07:45:11;;;;;;;18.07;8.77;;;;;;;11.69;100.00;99465.59;5050998;28;20282;-71
2023/10/24 07:47:37;;;;;;;23.13;9.00;;;;;;;11.69;100.00;99470.91;5048596;28;20261;-71
2023/10/24 07:50:06;;;;;;;16.87;8.67;;;;;;;11.81;100.00;99467.31;5048916;28;20202;-72
2023/10/24 07:52:33;;;;;;;17.20;7.90;;;;;;;11.85;100.00;99472.56;5048089;28;20233;-72
2023/10/24 07:54:59;;;;;;;16.60;8.67;;;;;;;11.81;100.00;99465.53;5050084;28;20276;-71
2023/10/24 07:57:25;;;;;;;21.40;8.70;;;;;;;11.88;100.00;99466.38;5046617;28;20202;-73
2023/10/24 07:59:52;;;;;;;15.87;8.07;;;;;;;11.84;100.00;99443.41;5048670;28;20205;-72
2023/10/24 08:02:18;;;;;;;12.93;7.70;;;;;;;11.79;100.00;99440.78;5057779;28;20230;-71
2023/10/24 08:04:44;;;;;;;15.20;8.80;;;;;;;11.80;100.00;99450.50;5050394;28;20224;-71
2023/10/24 08:07:11;;;;;;;13.57;7.97;;;;;;;11.87;100.00;99443.38;5048855;28;20313;-72
2023/10/24 08:09:37;;;;;;;21.97;9.07;;;;;;;11.95;100.00;99440.66;5043339;28;20206;-71
2023/10/24 08:12:04;;;;;;;15.57;8.60;;;;;;;11.92;100.00;99438.91;5044545;28;20219;-71
2023/10/24 08:14:31;;;;;;;17.33;8.83;;;;;;;11.96;100.00;99447.72;5054161;28;20203;-71
2023/10/24 08:16:58;;;;;;;16.60;8.03;;;;;;;11.97;100.00;99450.38;5048858;28;20285;-71
2023/10/24 08:19:24;;;;;;;14.17;8.33;;;;;;;12.00;100.00;99455.66;5049858;28;20260;-71
2023/10/24 08:21:51;;;;;;;14.47;8.23;;;;;;;11.85;100.00;99453.13;5049228;28;20260;-71
2023/10/24 08:24:17;;;;;;;14.53;8.30;;;;;;;11.86;100.00;99463.72;5050567;28;20548;-71
2023/10/24 08:26:43;;;;;;;12.87;7.70;;;;;;;11.87;100.00;99465.50;5050277;28;20554;-72
2023/10/24 08:29:30;;;;;;;13.67;8.00;;;;;;;11.89;100.00;99465.47;5039138;28;20640;-71
2023/10/24 08:31:56;;;;;;;16.20;8.53;;;;;;;11.87;100.00;99465.50;5047431;28;20218;-71
2023/10/24 08:34:27;;;;;;;19.93;8.30;;;;;;;11.86;100.00;99465.50;5043781;28;20253;-72
2023/10/24 08:36:53;;;;;;;14.03;8.90;;;;;;;11.97;100.00;99465.41;5046801;28;20209;-71
2023/10/24 08:39:21;;;;;;;13.63;8.30;;;;;;;12.03;100.00;99470.72;5049833;28;20406;-70
2023/10/24 08:41:51;;;;;;;14.93;8.27;;;;;;;12.08;100.00;99467.13;5048316;28;20296;-71
2023/10/24 08:44:19;;;;;;;15.13;8.07;;;;;;;12.06;100.00;99471.56;5046452;28;20209;-71
2023/10/24 08:46:46;;;;;;;13.13;8.23;;;;;;;12.03;100.00;99470.72;5040421;28;20235;-71
2023/10/24 08:49:14;;;;;;;14.77;8.00;;;;;;;12.01;100.00;99476.03;5049551;28;20207;-72
2023/10/24 08:51:40;;;;;;;13.13;7.67;;;;;;;12.05;100.00;99469.81;5050010;28;20195;-72
2023/10/24 08:54:07;;;;;;;12.40;7.90;;;;;;;12.06;100.00;99465.38;5048239;28;20199;-71
2023/10/24 08:56:36;;;;;;;16.37;8.40;;;;;;;12.10;100.00;99477.72;5037631;28;20205;-71
2023/10/24 08:59:08;;;;;;;12.83;7.73;;;;;;;12.17;100.00;99479.44;5046999;28;20203;-71
2023/10/24 09:01:35;;;;;;;10.70;6.70;;;;;;;12.22;100.00;99478.50;5043280;28;20546;-71
2023/10/24 09:04:03;;;;;;;10.90;7.17;;;;;;;12.32;100.00;99478.44;5046830;28;20260;-71
2023/10/24 09:06:34;;;;;;;10.73;7.03;;;;;;;12.39;100.00;99477.47;5042516;28;20597;-71
2023/10/24 09:09:00;;;;;;;14.90;7.27;;;;;;;12.41;100.00;99471.28;5041235;28;20218;-71
2023/10/24 09:12:03;;;;;;;13.43;7.67;;;;;;;12.53;100.00;99476.47;5040757;28;20198;-71
2023/10/24 09:14:29;;;;;;;10.87;6.47;;;;;;;12.58;100.00;99473.78;5043705;28;20290;-70
2023/10/24 09:17:16;;;;;;;13.17;7.43;;;;;;;12.60;100.00;99457.81;5042006;28;20202;-70
2023/10/24 09:19:43;;;;;;;12.57;7.03;;;;;;;12.62;100.00;99462.22;5048939;28;20242;-71
2023/10/24 09:22:15;;;;;;;13.60;7.40;;;;;;;12.72;100.00;99463.88;5047575;28;20768;-71
2023/10/24 09:24:47;;;;;;;12.60;7.50;;;;;;;12.79;100.00;99465.56;5048031;28;20230;-71
2023/10/24 09:27:15;;;;;;;11.77;7.20;;;;;;;12.81;100.00;99453.19;5046678;28;21447;-70
2023/10/24 09:29:42;;;;;;;10.93;6.73;;;;;;;12.85;100.00;99454.03;5048749;28;20476;-71
2023/10/24 09:32:15;;;;;;;12.03;6.77;;;;;;;12.84;100.00;99439.88;5047974;28;20230;-71
2023/10/24 09:34:43;;;;;;;12.60;6.37;;;;;;;12.93;100.00;99446.84;5048978;28;20215;-71
2023/10/24 09:37:13;;;;;;;9.77;6.47;;;;;;;12.91;100.00;99438.00;5043377;28;20820;-72
2023/10/24 09:39:53;;;;;;;10.20;5.90;;;;;;;12.86;100.00;99437.19;5047829;28;20289;-70
2023/10/24 09:42:25;;;;;;;9.90;5.87;;;;;;;12.98;100.00;99438.81;5038405;28;20594;-71
2023/10/24 09:44:58;;;;;;;10.87;6.67;;;;;;;12.95;100.00;99436.19;5045494;28;20209;-71
2023/10/24 09:47:26;;;;;;;9.67;5.50;;;;;;;12.94;100.00;99437.97;5049297;28;20198;-70
2023/10/24 09:49:54;;;;;;;10.30;5.80;;;;;;;13.11;100.00;99425.34;5047746;28;20199;-69
2023/10/24 09:52:24;;;;;;;12.17;5.90;;;;;;;13.00;100.00;99427.28;5034053;28;20218;-70
2023/10/24 09:54:51;;;;;;;7.40;5.10;;;;;;;12.94;100.00;99430.00;5048583;28;20206;-71
2023/10/24 09:57:23;;;;;;;8.73;4.70;;;;;;;12.93;100.00;99422.03;5048082;28;20202;-71
2023/10/24 09:59:54;;;;;;;9.27;5.23;;;;;;;12.96;100.00;99427.31;5041682;28;20252;-71
2023/10/24 10:02:25;;;;;;;10.10;5.13;;;;;;;13.05;100.00;99421.91;5049318;28;20221;-71
2023/10/24 10:04:52;;;;;;;11.80;5.50;;;;;;;13.21;100.00;99420.84;5048718;28;20674;-70
2023/10/24 10:07:22;;;;;;;10.10;5.33;;;;;;;13.12;100.00;99415.59;5039114;28;20199;-70
2023/10/24 10:09:53;;;;;;;8.10;5.40;;;;;;;13.23;100.00;99418.19;5048649;28;20202;-70
2023/10/24 10:12:20;;;;;;;9.33;5.63;;;;;;;13.21;100.00;99412.88;5048571;28;20222;-70
2023/10/24 10:15:12;;;;;;;12.40;5.73;;;;;;;13.24;100.00;99411.97;5041780;28;20203;-70
2023/10/24 10:18:37;;;;;;;7.03;4.80;;;;;;;13.26;100.00;99407.50;5038315;28;20207;-70
2023/10/24 10:21:29;;;;;;;10.00;4.70;;;;;;;13.14;100.00;99400.50;5033723;28;20207;-70
2023/10/24 10:24:09;;;;;;;10.13;4.83;;;;;;;13.11;100.00;99404.09;5052363;28;20207;-70
2023/10/24 10:26:42;;;;;;;8.90;5.00;;;;;;;13.28;100.00;99400.38;5046798;28;20199;-70
2023/10/24 10:29:23;;;;;;;9.40;4.80;;;;;;;13.40;100.00;99384.25;5040735;28;20207;-69
2023/10/24 10:32:15;;;;;;;10.20;4.87;;;;;;;13.49;100.00;99381.44;5051194;28;20781;-70
2023/10/24 10:35:01;;;;;;;7.80;4.53;;;;;;;13.45;100.00;99379.72;5049232;28;20268;-70
2023/10/24 10:37:35;;;;;;;8.20;4.80;;;;;;;13.50;100.00;99377.88;5051492;28;20242;-70
2023/10/24 10:40:14;;;;;;;7.37;4.60;;;;;;;13.60;100.00;99368.84;5052262;28;20203;-69
2023/10/24 10:42:48;;;;;;;6.93;4.40;;;;;;;13.41;100.00;99368.25;5051877;28;20214;-69
2023/10/24 10:45:27;;;;;;;9.60;4.37;;;;;;;13.47;100.00;99368.16;5044154;28;20210;-70
2023/10/24 10:47:59;;;;;;;7.20;4.20;;;;;;;13.66;100.00;99359.94;5052596;28;20203;-68
2023/10/24 10:50:30;;;;;;;7.47;4.33;;;;;;;13.70;100.00;99354.53;5050918;28;20203;-69
2023/10/24 10:53:09;;;;;;;5.57;3.90;;;;;;;13.69;100.00;99350.13;5035519;28;20605;-69
2023/10/24 10:55:46;;;;;;;6.43;4.00;;;;;;;13.79;100.00;99354.38;5044562;28;20206;-69
2023/10/24 10:58:22;;;;;;;8.30;3.97;;;;;;;13.73;100.00;99364.25;5066920;28;20198;-70
2023/10/24 11:01:00;;;;;;;6.43;3.87;;;;;;;13.82;100.00;99361.44;5051682;28;20202;-69
2023/10/24 11:03:37;;;;;;;8.53;4.27;;;;;;;13.84;100.00;99358.75;5059953;28;20670;-70
2023/10/24 11:06:14;;;;;;;5.80;3.73;;;;;;;13.92;100.00;99368.34;5051202;28;20207;-70
2023/10/24 11:08:43;;;;;;;6.60;4.10;;;;;;;14.03;100.00;99361.09;5051240;28;20551;-70
2023/10/24 11:11:10;;;;;;;7.60;4.70;;;;;;;14.06;100.00;99354.81;5050785;28;20203;-70
2023/10/24 11:13:44;;;;;;;6.30;3.87;;;;;;;14.18;100.00;99354.59;5045192;28;20396;-70
2023/10/24 11:16:12;;;;;;;9.00;4.50;;;;;;;14.30;100.00;99340.19;5050635;28;20267;-69
2023/10/24 11:18:58;;;;;;;10.27;5.33;;;;;;;14.39;100.00;99337.34;5049259;28;20206;-68
2023/10/24 11:21:25;;;;;;;8.73;5.47;;;;;;;14.44;100.00;99339.97;5053163;28;20203;-69
2023/10/24 11:23:51;;;;;;;8.40;5.73;;;;;;;14.48;100.00;99339.00;5049339;28;20226;-69
2023/10/24 11:26:18;;;;;;;11.50;6.00;;;;;;;14.52;100.00;99332.72;5050634;28;20246;-69